Time;durP1;ratioP1;P1;durP2;ratioP2;P2;SDS_P1;SDS_P2;PMS_P1;PMS_P2;Temp;Humidity;BMP_temperature;BMP_pressure;BME280_temperature;BME280_humidity;BME280_pressure;Samples;Min_cycle;Max_cycle;Signal;HPM_P1;HPM_P2
2022/04/09 00:00:21;;;;;;;2.55;1.33;;;;;;;13.60;39.51;100226.44;4957684;29;20034;-68
2022/04/09 00:02:46;;;;;;;10.98;1.77;;;;;;;13.59;39.16;100225.63;4957841;29;20051;-68
2022/04/09 00:05:13;;;;;;;8.02;1.30;;;;;;;13.60;39.32;100234.53;4956289;29;20492;-68
2022/04/09 00:07:38;;;;;;;12.20;1.48;;;;;;;13.58;39.23;100241.94;4957776;29;20024;-68
2022/04/09 00:10:05;;;;;;;3.63;1.13;;;;;;;13.57;39.81;100242.94;4957906;29;20057;-67
2022/04/09 00:12:31;;;;;;;3.85;1.60;;;;;;;13.55;39.27;100251.16;4957842;29;20035;-67
2022/04/09 00:14:56;;;;;;;2.78;1.13;;;;;;;13.53;39.00;100247.81;4956235;29;20023;-68
2022/04/09 00:17:22;;;;;;;5.30;1.35;;;;;;;13.52;40.01;100250.63;4957454;29;20033;-68
2022/04/09 00:19:48;;;;;;;5.25;1.60;;;;;;;13.50;39.85;100258.03;4957426;29;20059;-68
2022/04/09 00:22:14;;;;;;;4.95;1.40;;;;;;;13.46;39.59;100257.50;4957499;29;20078;-68
2022/04/09 00:24:39;;;;;;;6.30;1.40;;;;;;;13.43;39.59;100258.69;4956138;29;20102;-68
2022/04/09 00:27:05;;;;;;;4.47;0.93;;;;;;;13.39;39.65;100262.72;4957235;29;20390;-67
2022/04/09 00:29:30;;;;;;;3.05;1.23;;;;;;;13.40;39.15;100275.16;4957366;29;20031;-67
2022/04/09 00:31:56;;;;;;;6.07;1.23;;;;;;;13.39;39.46;100272.63;4956995;29;20461;-68
2022/04/09 00:34:21;;;;;;;7.35;1.58;;;;;;;13.37;40.18;100285.41;4955724;29;20118;-68
2022/04/09 00:36:47;;;;;;;4.72;1.20;;;;;;;13.35;39.38;100282.84;4956997;29;20501;-67
2022/04/09 00:39:12;;;;;;;5.68;1.58;;;;;;;13.35;40.16;100293.63;4957068;29;20030;-68
2022/04/09 00:41:47;;;;;;;4.00;1.55;;;;;;;13.36;40.20;100298.00;4957152;29;20043;-67
2022/04/09 00:44:17;;;;;;;8.48;1.50;;;;;;;13.36;40.06;100299.84;4955700;29;20031;-67
2022/04/09 00:46:42;;;;;;;4.28;1.38;;;;;;;13.35;40.48;100299.00;4956942;29;20070;-68
2022/04/09 00:49:08;;;;;;;14.52;2.10;;;;;;;13.33;39.21;100301.00;4957109;29;20078;-68
2022/04/09 00:51:34;;;;;;;11.02;1.45;;;;;;;13.33;40.25;100314.47;4955739;29;20035;-68
2022/04/09 00:54:00;;;;;;;8.70;1.70;;;;;;;13.32;39.45;100315.47;4956905;29;20131;-67
2022/04/09 00:56:25;;;;;;;5.88;1.42;;;;;;;13.32;40.21;100325.38;4956672;29;20027;-69
2022/04/09 00:58:54;;;;;;;4.43;1.42;;;;;;;13.30;39.69;100328.22;4955339;29;20038;-68
2022/04/09 01:01:20;;;;;;;4.60;1.55;;;;;;;13.31;39.79;100337.16;4956755;28;20027;-67
2022/04/09 01:03:47;;;;;;;8.18;1.50;;;;;;;13.28;40.32;100343.69;4956687;29;20408;-68
2022/04/09 01:06:12;;;;;;;4.65;1.20;;;;;;;13.26;40.03;100345.66;4955394;29;20035;-68
2022/04/09 01:08:37;;;;;;;1.98;1.13;;;;;;;13.27;39.49;100354.59;4956665;29;20396;-68
2022/04/09 01:11:03;;;;;;;9.20;1.65;;;;;;;13.24;40.43;100345.00;4956351;29;20404;-67
2022/04/09 01:13:29;;;;;;;3.50;1.40;;;;;;;13.23;40.66;100362.13;4955282;29;20404;-68
2022/04/09 01:15:54;;;;;;;4.03;1.60;;;;;;;13.23;39.95;100370.19;4956162;29;20473;-67
2022/04/09 01:18:20;;;;;;;5.90;1.73;;;;;;;13.23;39.53;100372.88;4956413;29;20440;-68
2022/04/09 01:20:45;;;;;;;8.07;1.45;;;;;;;13.22;39.59;100373.91;4956499;29;20031;-68
2022/04/09 01:23:10;;;;;;;6.13;1.48;;;;;;;13.22;39.44;100379.28;4956228;28;20031;-67
2022/04/09 01:25:37;;;;;;;5.50;1.42;;;;;;;13.20;39.79;100392.06;4955920;29;20089;-68
2022/04/09 01:28:03;;;;;;;2.80;1.35;;;;;;;13.18;40.20;100401.25;4956082;29;20035;-68
2022/04/09 01:30:29;;;;;;;3.05;1.45;;;;;;;13.13;39.71;100401.72;4956276;29;20023;-67
2022/04/09 01:32:54;;;;;;;3.25;1.73;;;;;;;13.06;39.91;100403.34;4956022;29;20114;-68
2022/04/09 01:35:19;;;;;;;6.63;1.85;;;;;;;13.03;40.49;100417.09;4955949;29;20470;-68
2022/04/09 01:37:45;;;;;;;7.45;1.67;;;;;;;12.99;40.07;100413.00;4955824;29;20389;-67
2022/04/09 01:40:10;;;;;;;8.02;1.42;;;;;;;12.97;40.34;100423.06;4955561;29;20097;-68
2022/04/09 01:42:36;;;;;;;6.03;1.45;;;;;;;12.94;40.36;100434.13;4956011;29;20042;-68
2022/04/09 01:45:05;;;;;;;10.10;1.92;;;;;;;12.89;40.06;100424.84;4955816;29;20057;-68
2022/04/09 01:47:31;;;;;;;5.47;1.75;;;;;;;12.87;40.89;100438.41;4954639;29;20027;-68
2022/04/09 01:49:56;;;;;;;10.60;1.65;;;;;;;12.89;40.62;100443.66;4955822;29;20058;-68
2022/04/09 01:52:22;;;;;;;4.93;1.33;;;;;;;12.87;40.82;100451.84;4955669;29;20027;-68
2022/04/09 01:54:47;;;;;;;5.03;1.83;;;;;;;12.87;40.82;100449.16;4955605;29;20066;-68
2022/04/09 01:57:13;;;;;;;8.30;2.72;;;;;;;12.92;40.75;100457.66;4955731;29;20027;-68
2022/04/09 01:59:40;;;;;;;9.20;1.88;;;;;;;12.94;41.08;100452.09;4955730;29;20031;-67
2022/04/09 02:02:05;;;;;;;5.25;1.65;;;;;;;12.94;40.42;100455.63;4955995;29;20027;-67
2022/04/09 02:04:31;;;;;;;9.82;2.05;;;;;;;12.94;40.59;100460.16;4955468;29;20560;-68
2022/04/09 02:06:56;;;;;;;4.38;1.95;;;;;;;12.93;41.13;100464.69;4955426;29;20035;-67
2022/04/09 02:09:21;;;;;;;10.60;2.13;;;;;;;12.93;40.23;100469.22;4955483;29;20039;-68
2022/04/09 02:11:47;;;;;;;2.80;1.67;;;;;;;12.91;40.95;100477.44;4955425;29;20039;-67
2022/04/09 02:14:12;;;;;;;12.95;2.08;;;;;;;12.88;41.09;100472.38;4960791;28;20038;-67
2022/04/09 02:16:39;;;;;;;9.00;1.80;;;;;;;12.87;40.99;100476.06;4961797;28;20034;-68
2022/04/09 02:19:04;;;;;;;11.15;2.40;;;;;;;12.86;40.58;100485.13;4960497;28;20031;-67
2022/04/09 02:21:30;;;;;;;9.40;1.75;;;;;;;12.84;40.53;100481.75;4961696;29;20037;-68
2022/04/09 02:23:56;;;;;;;8.52;1.48;;;;;;;12.84;41.31;100489.81;4961452;28;20086;-67
2022/04/09 02:26:21;;;;;;;6.65;1.67;;;;;;;12.83;40.79;100486.28;4961687;28;20030;-67
2022/04/09 02:28:49;;;;;;;6.35;1.27;;;;;;;12.83;40.81;100488.13;4961447;29;20035;-66
2022/04/09 02:31:17;;;;;;;7.43;1.60;;;;;;;12.83;40.88;100496.19;4961833;28;20050;-68
2022/04/09 02:33:46;;;;;;;10.23;2.30;;;;;;;12.84;41.21;100503.25;4961894;28;20039;-68
2022/04/09 02:36:12;;;;;;;7.30;1.35;;;;;;;12.79;41.24;100506.38;4960530;29;20027;-67
2022/04/09 02:38:40;;;;;;;13.05;1.73;;;;;;;12.79;41.06;100503.69;4961986;28;20039;-67
2022/04/09 02:41:06;;;;;;;9.48;1.90;;;;;;;12.79;41.48;100510.91;4961608;28;20042;-68
2022/04/09 02:43:32;;;;;;;16.10;2.65;;;;;;;12.78;40.36;100514.63;4944928;29;20030;-68
2022/04/09 02:45:57;;;;;;;7.50;1.70;;;;;;;12.77;41.36;100518.28;4961599;28;20034;-68
2022/04/09 02:48:23;;;;;;;6.68;2.08;;;;;;;12.73;41.45;100525.78;4960070;29;20031;-67
2022/04/09 02:50:48;;;;;;;5.68;1.40;;;;;;;12.71;40.87;100525.13;4961566;29;20031;-68
2022/04/09 02:53:14;;;;;;;8.00;1.67;;;;;;;12.70;41.15;100541.41;4961391;29;20110;-68
2022/04/09 02:55:39;;;;;;;9.15;1.58;;;;;;;12.69;41.50;100532.50;4961387;28;20427;-67
2022/04/09 02:58:05;;;;;;;4.18;1.35;;;;;;;12.67;40.50;100539.84;4960296;29;20366;-67
2022/04/09 03:00:30;;;;;;;10.48;2.03;;;;;;;12.65;41.35;100540.97;4961429;29;20026;-68
2022/04/09 03:02:56;;;;;;;12.23;1.67;;;;;;;12.63;40.85;100556.41;4961342;28;20035;-68
2022/04/09 03:05:22;;;;;;;6.93;1.60;;;;;;;12.60;41.13;100549.50;4961680;28;20055;-68
2022/04/09 03:07:47;;;;;;;6.82;1.90;;;;;;;12.57;41.15;100554.31;4960170;29;20378;-67
2022/04/09 03:10:13;;;;;;;6.00;1.98;;;;;;;12.56;41.76;100540.03;4961754;28;20055;-68
2022/04/09 03:12:46;;;;;;;12.00;2.15;;;;;;;12.53;41.29;100552.94;4961526;29;20039;-67
2022/04/09 03:15:12;;;;;;;5.05;1.63;;;;;;;12.52;41.03;100561.97;4961634;29;20452;-67
2022/04/09 03:17:37;;;;;;;6.95;1.58;;;;;;;12.53;41.78;100563.69;4961446;28;20023;-68
2022/04/09 03:20:04;;;;;;;10.45;2.15;;;;;;;12.52;41.13;100570.03;4961162;29;20027;-67
2022/04/09 03:22:30;;;;;;;14.82;2.08;;;;;;;12.53;41.58;100569.06;4960038;28;20512;-67
2022/04/09 03:24:58;;;;;;;4.07;1.42;;;;;;;12.54;41.73;100586.84;4958772;28;20078;-67
2022/04/09 03:27:25;;;;;;;10.00;1.60;;;;;;;12.55;41.21;100594.78;4958179;29;20485;-68
2022/04/09 03:29:51;;;;;;;7.45;2.35;;;;;;;12.56;41.14;100592.94;4958189;29;20023;-68
2022/04/09 03:32:16;;;;;;;8.10;1.70;;;;;;;12.56;41.28;100590.25;4957087;29;20033;-68
2022/04/09 03:34:42;;;;;;;13.68;2.35;;;;;;;12.55;41.69;100599.31;4958100;29;20437;-68
2022/04/09 03:37:08;;;;;;;7.45;1.85;;;;;;;12.54;41.47;100601.13;4956859;29;20078;-68
2022/04/09 03:39:33;;;;;;;4.78;1.25;;;;;;;12.53;41.90;100599.47;4957944;29;20027;-67
2022/04/09 03:41:59;;;;;;;6.82;1.83;;;;;;;12.53;41.36;100606.66;4958022;29;20041;-67
2022/04/09 03:44:24;;;;;;;11.80;1.73;;;;;;;12.52;41.28;100618.41;4958330;29;20030;-68
2022/04/09 03:46:59;;;;;;;8.43;1.75;;;;;;;12.50;41.51;100620.41;4957633;29;20026;-67
2022/04/09 03:49:25;;;;;;;6.47;1.42;;;;;;;12.49;41.29;100621.38;4957716;29;20027;-67
2022/04/09 03:51:50;;;;;;;7.30;1.25;;;;;;;12.48;41.57;100625.91;4958260;29;20139;-68
2022/04/09 03:54:16;;;;;;;7.65;1.55;;;;;;;12.47;41.58;100631.44;4957757;29;20066;-67
2022/04/09 03:56:43;;;;;;;8.85;1.35;;;;;;;12.45;40.77;100625.38;4957640;29;20038;-67
2022/04/09 03:59:08;;;;;;;11.18;2.78;;;;;;;12.42;41.27;100639.94;4957890;29;20027;-68
2022/04/09 04:01:33;;;;;;;5.43;1.63;;;;;;;12.39;41.54;100637.53;4956456;29;20135;-67
2022/04/09 04:03:59;;;;;;;5.68;1.65;;;;;;;12.39;41.61;100639.38;4957451;29;20580;-68
2022/04/09 04:06:24;;;;;;;8.77;1.55;;;;;;;12.35;41.66;100641.50;4957615;29;20102;-68
2022/04/09 04:08:50;;;;;;;4.75;1.67;;;;;;;12.35;41.44;100646.00;4957636;28;20031;-68
2022/04/09 04:11:15;;;;;;;6.25;1.95;;;;;;;12.34;41.60;100652.41;4957629;29;20037;-68
2022/04/09 04:13:40;;;;;;;4.53;1.33;;;;;;;12.31;41.60;100650.00;4957391;29;20019;-67
2022/04/09 04:16:06;;;;;;;6.88;1.42;;;;;;;12.31;41.89;100650.00;4957515;29;20027;-67
2022/04/09 04:18:31;;;;;;;9.10;1.55;;;;;;;12.30;41.39;100659.03;4957679;29;20020;-67
2022/04/09 04:20:57;;;;;;;8.70;1.50;;;;;;;12.27;41.54;100662.88;4956116;29;20114;-67
2022/04/09 04:23:23;;;;;;;4.80;1.25;;;;;;;12.25;41.87;100663.00;4957231;29;20082;-68
2022/04/09 04:25:49;;;;;;;6.45;2.75;;;;;;;12.24;41.73;100660.47;4957056;29;20027;-67
2022/04/09 04:28:15;;;;;;;3.80;1.63;;;;;;;12.20;42.26;100659.88;4957025;29;20027;-67
2022/04/09 04:30:40;;;;;;;13.70;1.70;;;;;;;12.23;41.76;100669.50;4957207;29;20500;-67
2022/04/09 04:33:05;;;;;;;11.07;3.30;;;;;;;12.21;41.42;100675.03;4957098;29;20106;-67
2022/04/09 04:35:31;;;;;;;6.55;2.67;;;;;;;12.20;41.87;100681.38;4956905;28;20019;-68
2022/04/09 04:37:56;;;;;;;5.95;1.80;;;;;;;12.20;42.13;100686.75;4956990;29;20429;-68
2022/04/09 04:40:22;;;;;;;5.55;2.15;;;;;;;12.17;41.58;100695.09;4957080;29;20034;-67
2022/04/09 04:42:49;;;;;;;13.82;1.90;;;;;;;12.17;41.42;100691.56;4956918;29;20027;-67
2022/04/09 04:45:14;;;;;;;8.00;2.30;;;;;;;12.17;42.02;100695.09;4957112;29;20027;-68
2022/04/09 04:47:47;;;;;;;9.90;2.72;;;;;;;12.20;41.52;100699.31;4956701;29;20023;-67
2022/04/09 04:50:13;;;;;;;3.15;1.60;;;;;;;12.15;42.06;100699.75;4957007;29;20031;-67
2022/04/09 04:52:39;;;;;;;6.63;2.10;;;;;;;12.16;41.62;100704.16;4956508;29;20035;-68
2022/04/09 04:55:05;;;;;;;8.27;2.53;;;;;;;12.17;41.73;100719.25;4956749;29;20504;-68
2022/04/09 04:57:39;;;;;;;9.98;1.77;;;;;;;12.16;42.15;100717.56;4956482;29;20015;-68
2022/04/09 05:00:06;;;;;;;5.57;1.50;;;;;;;12.16;41.80;100720.25;4956624;29;20042;-68
2022/04/09 05:02:31;;;;;;;7.32;2.25;;;;;;;12.13;42.05;100727.75;4956874;29;20441;-67
2022/04/09 05:04:56;;;;;;;6.07;2.05;;;;;;;12.13;41.97;100733.13;4956060;29;20039;-68
2022/04/09 05:07:23;;;;;;;10.85;1.88;;;;;;;12.11;41.90;100733.28;4956124;29;20053;-67
2022/04/09 05:09:48;;;;;;;4.72;1.30;;;;;;;12.09;42.37;100743.28;4956379;29;20062;-67
2022/04/09 05:12:13;;;;;;;17.45;1.90;;;;;;;12.09;41.92;100745.97;4956040;29;20110;-67
2022/04/09 05:14:39;;;;;;;10.65;1.60;;;;;;;12.10;42.45;100749.50;4954845;29;20027;-68
2022/04/09 05:17:04;;;;;;;12.60;1.60;;;;;;;12.13;42.19;100755.44;4956102;29;20110;-67
2022/04/09 05:19:30;;;;;;;15.32;3.88;;;;;;;12.14;42.10;100756.31;4954662;29;20027;-68
2022/04/09 05:21:55;;;;;;;9.25;1.98;;;;;;;12.20;42.71;100761.94;4956257;29;20027;-68
2022/04/09 05:24:20;;;;;;;4.28;1.20;;;;;;;12.24;41.79;100768.72;4955935;29;20396;-68
2022/04/09 05:26:46;;;;;;;15.60;1.90;;;;;;;12.28;42.24;100762.06;4956003;29;20066;-68
2022/04/09 05:29:11;;;;;;;3.10;1.33;;;;;;;12.33;42.17;100766.19;4954795;29;20027;-68
2022/04/09 05:31:37;;;;;;;9.10;1.83;;;;;;;12.41;42.40;100769.84;4955796;29;20485;-67
2022/04/09 05:34:02;;;;;;;18.27;2.13;;;;;;;12.52;42.00;100776.91;4955831;29;20035;-67
2022/04/09 05:36:27;;;;;;;11.35;2.20;;;;;;;12.63;41.91;100784.81;4955904;29;20033;-68
2022/04/09 05:38:53;;;;;;;10.68;1.80;;;;;;;12.74;42.40;100792.72;4954288;29;20031;-68
2022/04/09 05:41:19;;;;;;;14.68;2.35;;;;;;;12.82;42.16;100790.16;4963577;29;20035;-67
2022/04/09 05:43:45;;;;;;;10.88;2.17;;;;;;;12.90;41.35;100795.66;4958732;29;20086;-68
2022/04/09 05:46:10;;;;;;;4.45;2.05;;;;;;;12.93;41.65;100798.06;4955684;29;20469;-68
2022/04/09 05:48:36;;;;;;;9.30;2.45;;;;;;;12.93;42.35;100794.50;4954703;28;20035;-68
2022/04/09 05:51:01;;;;;;;8.57;2.03;;;;;;;12.97;42.38;100810.22;4954185;29;20110;-68
2022/04/09 05:53:26;;;;;;;9.20;1.85;;;;;;;13.13;41.42;100812.34;4955387;29;20081;-67
2022/04/09 05:55:52;;;;;;;4.03;1.55;;;;;;;13.15;41.80;100808.50;4955608;29;20035;-68
2022/04/09 05:58:18;;;;;;;12.90;2.50;;;;;;;13.17;42.07;100811.91;4955365;29;20393;-67
2022/04/09 06:00:43;;;;;;;5.28;1.83;;;;;;;13.22;41.82;100804.25;4955575;29;20038;-68
2022/04/09 06:03:08;;;;;;;9.27;2.47;;;;;;;13.26;41.25;100811.00;4955112;29;20066;-67
2022/04/09 06:05:34;;;;;;;15.05;4.00;;;;;;;13.36;41.86;100811.00;4955584;29;20153;-67
2022/04/09 06:08:00;;;;;;;13.13;2.53;;;;;;;13.62;41.27;100824.63;4955566;29;20043;-68
2022/04/09 06:10:25;;;;;;;8.25;2.58;;;;;;;13.86;41.01;100828.47;4955595;29;20381;-68
2022/04/09 06:12:51;;;;;;;11.43;2.40;;;;;;;14.08;40.85;100839.81;4955378;29;20032;-68
2022/04/09 06:15:16;;;;;;;11.52;2.30;;;;;;;14.29;41.00;100833.13;4955439;29;20066;-67
2022/04/09 06:17:41;;;;;;;8.50;1.55;;;;;;;14.51;40.65;100843.50;4955143;29;20027;-67
2022/04/09 06:20:07;;;;;;;5.25;2.15;;;;;;;14.62;40.98;100841.56;4955609;29;20031;-67
2022/04/09 06:22:33;;;;;;;16.20;2.38;;;;;;;14.60;41.69;100843.59;4955065;29;20062;-68
2022/04/09 06:24:59;;;;;;;11.30;2.13;;;;;;;14.69;41.32;100848.88;4955056;29;20062;-68
2022/04/09 06:27:25;;;;;;;16.30;2.20;;;;;;;14.92;41.12;100849.25;4955068;29;20023;-67
2022/04/09 06:29:50;;;;;;;10.25;1.88;;;;;;;14.91;40.78;100855.63;4955104;29;20070;-68
2022/04/09 06:32:16;;;;;;;10.93;2.10;;;;;;;14.73;41.49;100852.13;4955251;29;20504;-68
2022/04/09 06:34:41;;;;;;;5.85;1.17;;;;;;;14.63;41.46;100867.53;4953715;29;20023;-67
2022/04/09 06:37:06;;;;;;;5.95;1.63;;;;;;;14.54;42.04;100864.75;4955058;29;20389;-68
2022/04/09 06:39:32;;;;;;;13.30;1.92;;;;;;;14.48;42.25;100864.53;4953689;29;20112;-68
2022/04/09 06:41:59;;;;;;;14.52;2.20;;;;;;;14.47;42.05;100877.16;4960583;28;20031;-69
2022/04/09 06:44:25;;;;;;;8.38;2.17;;;;;;;14.49;41.99;100883.22;4957032;28;20454;-67
2022/04/09 06:46:50;;;;;;;20.65;3.72;;;;;;;14.66;41.17;100883.38;4974386;28;20568;-68
2022/04/09 06:49:16;;;;;;;9.27;2.13;;;;;;;14.91;41.53;100877.22;4974181;28;20118;-68
2022/04/09 06:51:42;;;;;;;7.38;2.30;;;;;;;14.79;40.74;100881.16;4974421;28;20034;-68
2022/04/09 06:54:08;;;;;;;12.10;1.67;;;;;;;14.79;40.63;100891.94;4973093;28;20026;-67
2022/04/09 06:56:33;;;;;;;4.57;1.58;;;;;;;14.74;40.93;100887.00;4974256;28;20031;-67
2022/04/09 06:59:00;;;;;;;6.35;1.83;;;;;;;14.72;40.56;100909.72;4974905;28;20019;-68
2022/04/09 07:01:26;;;;;;;6.20;2.05;;;;;;;14.67;40.66;100912.06;4977676;28;20027;-67
2022/04/09 07:03:52;;;;;;;10.30;1.90;;;;;;;14.65;40.77;100917.59;4977527;28;20412;-67
2022/04/09 07:06:17;;;;;;;10.80;1.40;;;;;;;14.68;41.53;100924.53;4976554;28;20030;-68
2022/04/09 07:08:43;;;;;;;4.35;1.25;;;;;;;14.69;40.85;100927.06;4977486;28;20030;-68
2022/04/09 07:11:08;;;;;;;7.25;2.05;;;;;;;14.68;41.47;100932.63;4977657;28;20038;-68
2022/04/09 07:13:33;;;;;;;4.72;1.17;;;;;;;14.63;40.57;100938.47;4977735;28;20033;-67
2022/04/09 07:15:59;;;;;;;10.10;1.52;;;;;;;14.63;40.67;100946.53;4977424;28;20393;-68
2022/04/09 07:18:24;;;;;;;8.10;1.65;;;;;;;14.60;40.65;100951.41;4977480;28;20054;-68
2022/04/09 07:20:49;;;;;;;6.18;2.10;;;;;;;14.51;41.50;100956.72;4976341;28;20079;-68
2022/04/09 07:23:15;;;;;;;4.32;1.65;;;;;;;14.40;42.04;100956.09;4976181;28;20030;-68
2022/04/09 07:25:42;;;;;;;3.90;1.30;;;;;;;14.33;41.32;100946.88;4977405;28;20031;-68
2022/04/09 07:28:08;;;;;;;11.25;2.08;;;;;;;14.29;41.28;100943.59;4960120;28;20054;-68
2022/04/09 07:30:33;;;;;;;5.40;1.50;;;;;;;14.31;41.92;100949.72;4977293;28;20105;-68
2022/04/09 07:32:58;;;;;;;8.82;2.15;;;;;;;14.37;41.21;100943.75;4975978;28;20027;-68
2022/04/09 07:35:25;;;;;;;13.05;1.73;;;;;;;14.50;41.77;100951.47;4977066;28;20520;-68
2022/04/09 07:37:53;;;;;;;6.32;1.95;;;;;;;14.60;41.10;100954.13;4977263;28;20046;-68
2022/04/09 07:40:20;;;;;;;11.25;2.10;;;;;;;14.74;40.55;100957.13;4959980;28;20105;-68
2022/04/09 07:42:46;;;;;;;9.68;2.10;;;;;;;14.89;40.26;100954.75;4977062;28;20055;-68
2022/04/09 07:45:12;;;;;;;4.55;1.40;;;;;;;15.03;40.89;100968.53;4976969;28;20098;-68
2022/04/09 07:47:38;;;;;;;8.90;1.63;;;;;;;15.10;41.30;100963.38;4977853;28;20111;-68
2022/04/09 07:50:06;;;;;;;6.13;1.45;;;;;;;15.09;40.44;100961.69;4976915;28;20031;-68
2022/04/09 07:52:31;;;;;;;10.73;1.27;;;;;;;15.73;40.59;100956.81;4976862;28;20038;-68
2022/04/09 07:54:57;;;;;;;6.20;1.75;;;;;;;16.23;39.87;100962.31;4976768;28;20388;-68
2022/04/09 07:57:26;;;;;;;7.10;1.45;;;;;;;16.67;39.97;100952.19;4976757;28;20097;-68
2022/04/09 07:59:56;;;;;;;5.28;1.70;;;;;;;17.10;38.93;100958.34;4976815;28;20054;-68
2022/04/09 08:02:22;;;;;;;11.05;2.15;;;;;;;17.48;38.16;100961.22;4977073;28;20394;-69
2022/04/09 08:04:47;;;;;;;7.53;1.73;;;;;;;17.86;39.20;100967.81;4976601;28;20476;-68
2022/04/09 08:07:13;;;;;;;6.03;1.65;;;;;;;18.16;38.55;100960.78;4976564;28;20113;-67
2022/04/09 08:09:38;;;;;;;7.20;1.50;;;;;;;18.48;38.47;100968.78;4975276;28;20041;-67
2022/04/09 08:12:04;;;;;;;3.22;1.48;;;;;;;18.82;38.32;100971.16;4975994;28;20027;-68
2022/04/09 08:14:32;;;;;;;5.97;1.60;;;;;;;19.11;38.21;100974.03;4976463;28;20118;-68
2022/04/09 08:16:57;;;;;;;11.38;1.80;;;;;;;19.42;37.70;100970.41;4976553;28;20033;-68
2022/04/09 08:19:23;;;;;;;9.63;1.48;;;;;;;19.67;37.08;100966.44;4976895;28;20484;-68
2022/04/09 08:21:48;;;;;;;13.18;2.20;;;;;;;19.94;36.77;100967.69;4975055;28;20022;-68
2022/04/09 08:24:14;;;;;;;7.90;2.30;;;;;;;20.22;36.59;100964.13;4976262;28;20023;-69
2022/04/09 08:26:39;;;;;;;6.38;1.30;;;;;;;20.24;37.20;100970.25;4975113;28;20026;-67
2022/04/09 08:29:05;;;;;;;7.70;1.27;;;;;;;20.50;36.15;100974.38;4976343;28;20030;-67
2022/04/09 08:31:31;;;;;;;10.40;2.70;;;;;;;20.73;35.85;100985.97;4976112;28;20034;-67
2022/04/09 08:33:57;;;;;;;9.30;1.85;;;;;;;20.86;35.93;100981.53;4976215;28;20026;-67
2022/04/09 08:36:22;;;;;;;6.40;1.15;;;;;;;21.03;35.78;100981.28;4976090;28;20027;-68
2022/04/09 08:38:47;;;;;;;6.20;0.82;;;;;;;21.17;35.58;100977.69;4976060;28;20023;-68
2022/04/09 08:41:16;;;;;;;8.77;1.20;;;;;;;21.15;35.28;100980.63;4975965;28;20026;-68
2022/04/09 08:43:42;;;;;;;11.23;1.33;;;;;;;20.96;35.17;100989.41;4974782;28;20027;-69
2022/04/09 08:46:07;;;;;;;7.40;1.70;;;;;;;21.06;35.62;100976.28;4974783;28;20034;-68
2022/04/09 08:48:33;;;;;;;5.43;1.45;;;;;;;21.21;35.14;100982.56;4974812;28;20042;-68
2022/04/09 08:50:59;;;;;;;8.02;2.08;;;;;;;21.45;35.27;100998.53;4975804;28;20400;-68
2022/04/09 08:53:24;;;;;;;8.45;1.73;;;;;;;21.62;34.11;100990.06;4974676;28;20026;-68
2022/04/09 08:55:51;;;;;;;8.50;1.95;;;;;;;21.77;34.18;100988.94;4975631;28;20605;-67
2022/04/09 08:58:16;;;;;;;9.00;1.45;;;;;;;21.97;33.63;100981.75;4975642;28;20050;-68
2022/04/09 09:00:45;;;;;;;15.85;1.70;;;;;;;22.31;33.70;100983.66;4975627;28;20100;-68
2022/04/09 09:03:11;;;;;;;4.00;1.50;;;;;;;22.55;33.88;100980.44;4975572;28;20505;-68
2022/04/09 09:05:39;;;;;;;8.60;1.35;;;;;;;22.37;33.77;100982.84;4974306;28;20029;-69
2022/04/09 09:08:06;;;;;;;7.50;1.27;;;;;;;22.10;34.04;100981.03;4975541;28;20023;-67
2022/04/09 09:10:32;;;;;;;6.85;1.48;;;;;;;22.10;33.39;100991.94;4974441;28;20034;-68
2022/04/09 09:13:04;;;;;;;10.50;1.95;;;;;;;21.73;33.60;100994.97;4973690;28;20380;-67
2022/04/09 09:15:53;;;;;;;11.27;2.15;;;;;;;21.95;33.08;100999.38;4958629;28;20037;-68
2022/04/09 09:18:20;;;;;;;9.25;1.85;;;;;;;21.56;33.43;100996.28;4975430;28;20146;-68
2022/04/09 09:20:51;;;;;;;9.23;1.42;;;;;;;21.35;33.20;101003.47;4975382;28;20030;-68
2022/04/09 09:23:46;;;;;;;7.18;1.27;;;;;;;21.44;32.69;101007.72;4973243;28;20030;-68
2022/04/09 09:26:20;;;;;;;5.63;1.48;;;;;;;21.60;32.92;100995.72;4965317;28;20038;-68
2022/04/09 09:28:54;;;;;;;7.32;1.40;;;;;;;21.14;33.20;100992.53;4974970;28;20035;-68
2022/04/09 09:31:19;;;;;;;6.53;1.50;;;;;;;21.38;32.59;100999.50;4975107;28;20097;-69
2022/04/09 09:33:48;;;;;;;7.60;1.35;;;;;;;21.51;32.50;101004.22;4975433;28;20165;-68
2022/04/09 09:36:13;;;;;;;6.72;0.93;;;;;;;21.90;31.91;100991.78;4975362;28;20388;-68
2022/04/09 09:38:40;;;;;;;9.00;1.65;;;;;;;22.04;32.06;100998.19;4975144;28;20029;-68
2022/04/09 09:41:21;;;;;;;13.00;2.30;;;;;;;22.42;31.52;100998.59;4975119;28;20026;-68
2022/04/09 09:44:03;;;;;;;6.03;1.20;;;;;;;22.28;31.31;101005.06;4973886;28;20027;-68
2022/04/09 09:46:28;;;;;;;6.47;1.77;;;;;;;22.65;31.51;100995.59;4972988;28;20058;-68
2022/04/09 09:48:53;;;;;;;5.22;1.15;;;;;;;22.88;30.98;100990.66;4957435;28;20026;-67
2022/04/09 09:51:23;;;;;;;8.63;1.63;;;;;;;22.69;31.02;101002.34;4973519;28;20091;-68
2022/04/09 09:53:48;;;;;;;12.48;1.85;;;;;;;22.25;32.08;101008.19;4974740;28;20038;-68
2022/04/09 09:56:14;;;;;;;3.88;1.60;;;;;;;21.86;31.91;101016.91;4973583;28;20027;-68
2022/04/09 09:58:40;;;;;;;7.70;1.67;;;;;;;22.52;30.39;101008.13;4973542;28;20055;-69
2022/04/09 10:01:06;;;;;;;9.10;1.77;;;;;;;23.32;29.80;101015.56;4973665;28;20038;-69
2022/04/09 10:03:31;;;;;;;9.73;1.83;;;;;;;22.77;31.21;101018.56;4957226;28;20068;-68
2022/04/09 10:05:57;;;;;;;3.40;1.23;;;;;;;22.27;31.27;101015.13;4973906;28;20057;-68
2022/04/09 10:08:22;;;;;;;4.45;1.15;;;;;;;23.01;30.84;101010.66;4973805;28;20428;-69
2022/04/09 10:10:51;;;;;;;2.10;1.00;;;;;;;23.40;30.04;101012.66;4973769;28;20070;-69
2022/04/09 10:13:20;;;;;;;7.65;1.48;;;;;;;23.86;30.18;100999.03;4974423;28;20113;-68
2022/04/09 10:15:47;;;;;;;3.50;1.30;;;;;;;24.48;29.65;100993.03;4974689;28;20023;-68
2022/04/09 10:18:12;;;;;;;8.77;1.83;;;;;;;24.71;29.17;100996.09;4974434;28;20030;-67
2022/04/09 10:20:39;;;;;;;4.88;1.83;;;;;;;24.16;29.18;100997.53;4973473;28;20030;-68
2022/04/09 10:23:06;;;;;;;7.03;1.30;;;;;;;23.42;30.09;101005.09;4973800;28;20101;-68
2022/04/09 10:25:32;;;;;;;6.05;1.30;;;;;;;22.87;29.98;100999.88;4973713;28;20054;-68
2022/04/09 10:28:03;;;;;;;12.52;1.40;;;;;;;23.28;29.04;101003.38;4973584;28;20061;-68
2022/04/09 10:30:29;;;;;;;8.80;1.88;;;;;;;24.53;28.76;101000.59;4974749;28;20027;-67
2022/04/09 10:32:57;;;;;;;1.83;1.52;;;;;;;25.42;27.59;100995.94;4957371;28;20050;-66
2022/04/09 10:35:30;;;;;;;2.05;1.23;;;;;;;26.11;26.64;100997.69;4978699;28;20147;-69
2022/04/09 10:38:08;;;;;;;4.13;1.52;;;;;;;26.72;26.54;100984.75;4976969;28;20027;-69
2022/04/09 10:40:33;;;;;;;2.95;1.20;;;;;;;27.05;26.51;100990.66;4978153;28;20030;-69
2022/04/09 10:43:01;;;;;;;4.07;1.13;;;;;;;25.83;27.21;100988.03;4978040;28;20491;-70
2022/04/09 10:45:27;;;;;;;3.08;1.10;;;;;;;24.85;28.34;100999.66;4977920;28;20440;-69
2022/04/09 10:48:11;;;;;;;8.10;1.40;;;;;;;23.93;28.06;101012.69;4976944;28;20031;-70
2022/04/09 10:50:54;;;;;;;6.20;1.20;;;;;;;23.26;29.07;101010.94;4978224;28;20421;-70
2022/04/09 10:53:22;;;;;;;4.78;0.95;;;;;;;22.75;28.83;101017.94;4978062;28;20027;-71
2022/04/09 10:56:24;;;;;;;4.72;1.55;;;;;;;22.19;29.03;101015.31;4978168;28;20034;-69
2022/04/09 10:59:06;;;;;;;4.28;1.10;;;;;;;21.68;29.54;101008.34;4977843;28;20038;-69
2022/04/09 11:01:47;;;;;;;11.50;1.50;;;;;;;21.53;29.21;101015.75;4978006;28;20431;-68
2022/04/09 11:04:36;;;;;;;2.65;1.27;;;;;;;23.01;28.78;101018.00;4977821;28;20085;-69
2022/04/09 11:07:02;;;;;;;2.17;0.93;;;;;;;23.76;28.50;101023.22;4977591;28;20408;-69
2022/04/09 11:09:42;;;;;;;2.90;1.38;;;;;;;23.29;28.91;101016.00;4977874;28;20530;-69
2022/04/09 11:12:08;;;;;;;1.90;0.90;;;;;;;22.57;28.78;101011.09;4977903;28;20037;-70
2022/04/09 11:14:48;;;;;;;3.78;0.98;;;;;;;21.98;29.72;101015.34;4977718;28;20022;-68
2022/04/09 11:17:15;;;;;;;3.15;1.02;;;;;;;21.51;30.13;101017.84;4977581;28;20084;-68
2022/04/09 11:19:42;;;;;;;3.65;1.00;;;;;;;21.16;30.36;101022.34;4977551;28;20366;-68
2022/04/09 11:22:09;;;;;;;4.18;0.82;;;;;;;20.82;30.18;101025.69;4978203;28;20132;-69